createdAt,value
2022-12-03T00:03:05.924Z,21.65
2022-12-03T00:05:33.066Z,20.77
2022-12-03T00:08:00.110Z,19.52
2022-12-03T00:10:27.057Z,20.60
2022-12-03T00:12:53.987Z,19.90
2022-12-03T00:15:20.978Z,19.73
2022-12-03T00:17:47.887Z,18.90
2022-12-03T00:20:23.297Z,18.15
2022-12-03T00:22:50.723Z,19.38
2022-12-03T00:25:17.944Z,18.20
2022-12-03T00:27:44.855Z,18.00
2022-12-03T00:30:12.405Z,17.77
2022-12-03T00:32:39.476Z,17.23
2022-12-03T00:37:35.361Z,16.63
2022-12-03T00:40:04.112Z,16.63
2022-12-03T00:42:31.053Z,16.73
2022-12-03T00:44:58.063Z,16.15
2022-12-03T00:47:25.012Z,15.77
2022-12-03T00:49:51.942Z,15.05
2022-12-03T00:52:18.881Z,14.65
2022-12-03T00:54:45.791Z,15.52
2022-12-03T00:59:39.805Z,15.38
2022-12-03T01:02:06.718Z,14.45
2022-12-03T01:04:34.052Z,15.55
2022-12-03T01:07:01.149Z,15.32
2022-12-03T01:09:28.039Z,15.23
2022-12-03T01:11:54.903Z,14.73
2022-12-03T01:14:21.933Z,13.38
2022-12-03T01:16:49.235Z,14.43
2022-12-03T01:19:17.051Z,14.15
2022-12-03T01:21:45.164Z,14.18
2022-12-03T01:24:12.484Z,13.82
2022-12-03T01:26:39.378Z,13.40
2022-12-03T01:29:06.698Z,13.32
2022-12-03T01:31:52.225Z,13.65
2022-12-03T01:34:19.161Z,13.65
2022-12-03T01:36:46.113Z,13.25
2022-12-03T01:39:12.986Z,13.43
2022-12-03T01:41:40.991Z,12.95
2022-12-03T01:44:33.681Z,12.63
2022-12-03T01:47:03.514Z,12.10
2022-12-03T01:49:41.355Z,12.27
2022-12-03T01:52:16.643Z,12.82
2022-12-03T01:54:48.673Z,12.38
2022-12-03T01:57:22.354Z,12.02
2022-12-03T01:59:49.919Z,11.95
2022-12-03T02:02:31.116Z,12.60
2022-12-03T02:04:58.600Z,12.38
2022-12-03T02:07:33.747Z,11.50
2022-12-03T02:10:02.868Z,11.43
2022-12-03T02:12:41.582Z,10.68
2022-12-03T02:15:09.857Z,11.30
2022-12-03T02:17:37.100Z,11.60
2022-12-03T02:20:06.389Z,11.05
2022-12-03T02:22:56.943Z,11.45
2022-12-03T02:25:32.054Z,10.55
2022-12-03T02:27:59.576Z,10.73
2022-12-03T02:30:28.084Z,11.23
2022-12-03T02:32:55.494Z,10.85
2022-12-03T02:35:32.310Z,10.52
2022-12-03T02:40:54.290Z,10.45
2022-12-03T02:43:22.176Z,9.77
2022-12-03T02:45:52.426Z,9.98
2022-12-03T02:48:38.802Z,9.82
2022-12-03T02:51:10.133Z,10.70
2022-12-03T02:53:44.509Z,10.20
2022-12-03T02:56:14.492Z,9.55
2022-12-03T02:58:42.415Z,9.00
2022-12-03T03:01:09.694Z,9.43
2022-12-03T03:03:37.791Z,9.30
2022-12-03T03:06:05.513Z,9.88
2022-12-03T03:08:32.472Z,9.23
2022-12-03T03:11:00.873Z,8.52
2022-12-03T03:13:30.270Z,9.48
2022-12-03T03:15:57.314Z,9.50
2022-12-03T03:18:24.325Z,9.00
2022-12-03T03:20:51.355Z,8.93
2022-12-03T03:23:20.086Z,8.88
2022-12-03T03:26:13.805Z,8.63
2022-12-03T03:28:46.883Z,8.30
2022-12-03T03:31:16.236Z,8.95
2022-12-03T03:33:44.930Z,8.57
2022-12-03T03:36:13.003Z,8.80
2022-12-03T03:38:40.012Z,8.77
2022-12-03T03:41:08.602Z,7.72
2022-12-03T03:43:37.657Z,7.75
2022-12-03T03:46:05.889Z,8.77
2022-12-03T03:48:34.602Z,8.30
2022-12-03T03:51:03.757Z,8.50
2022-12-03T03:53:30.917Z,7.70
2022-12-03T03:55:57.867Z,7.32
2022-12-03T03:58:24.735Z,7.95
2022-12-03T04:00:51.962Z,8.23
2022-12-03T04:03:18.882Z,8.02
2022-12-03T04:05:46.718Z,7.78
2022-12-03T04:08:13.660Z,7.28
2022-12-03T04:10:59.156Z,7.88
2022-12-03T04:13:25.999Z,7.95
2022-12-03T04:15:52.886Z,7.53
2022-12-03T04:18:49.019Z,8.05
2022-12-03T04:21:39.571Z,8.00
2022-12-03T04:24:07.965Z,7.10
2022-12-03T04:26:53.399Z,7.20
2022-12-03T04:29:20.800Z,7.13
2022-12-03T04:32:06.942Z,7.05
2022-12-03T04:34:52.727Z,7.22
2022-12-03T04:37:20.098Z,7.32
2022-12-03T04:39:46.947Z,7.25
2022-12-03T04:42:13.952Z,6.47
2022-12-03T04:44:40.873Z,6.97
2022-12-03T04:47:19.280Z,6.75
2022-12-03T04:49:48.553Z,6.65
2022-12-03T04:52:16.974Z,6.60
2022-12-03T04:54:43.968Z,7.10
2022-12-03T04:57:11.843Z,6.75
2022-12-03T04:59:39.260Z,6.68
2022-12-03T05:02:07.023Z,6.72
2022-12-03T05:04:34.289Z,6.78
2022-12-03T05:07:01.341Z,6.53
2022-12-03T05:09:28.211Z,6.70
2022-12-03T05:11:55.114Z,6.45
2022-12-03T05:14:22.029Z,6.43
2022-12-03T05:16:48.940Z,6.70
2022-12-03T05:19:15.880Z,6.40
2022-12-03T05:21:42.748Z,6.30
2022-12-03T05:24:09.639Z,6.15
2022-12-03T05:26:36.564Z,6.18
2022-12-03T05:29:03.641Z,6.50
2022-12-03T05:31:30.573Z,5.97
2022-12-03T05:33:57.507Z,6.30
2022-12-03T05:36:25.643Z,5.68
2022-12-03T05:38:52.568Z,6.05
2022-12-03T05:41:38.261Z,5.38
2022-12-03T05:44:05.202Z,5.55
2022-12-03T05:46:33.044Z,5.53
2022-12-03T05:49:00.093Z,5.22
2022-12-03T05:51:27.187Z,5.55
2022-12-03T05:53:54.090Z,4.95
2022-12-03T05:56:21.017Z,4.65
2022-12-03T05:58:47.897Z,5.03
2022-12-03T06:01:14.791Z,4.97
2022-12-03T06:03:41.778Z,5.22
2022-12-03T06:06:08.788Z,4.80
2022-12-03T06:08:35.633Z,5.15
2022-12-03T06:11:02.584Z,4.40
2022-12-03T06:13:29.462Z,4.90
2022-12-03T06:15:56.401Z,4.15
2022-12-03T06:18:23.391Z,4.40
2022-12-03T06:20:50.224Z,4.22
2022-12-03T06:23:17.102Z,4.15
2022-12-03T06:25:44.030Z,4.45
2022-12-03T06:28:10.925Z,4.68
2022-12-03T06:30:37.860Z,4.63
2022-12-03T06:33:04.738Z,3.80
2022-12-03T06:35:31.707Z,4.38
2022-12-03T06:37:58.638Z,4.50
2022-12-03T06:40:26.003Z,4.22
2022-12-03T06:42:53.175Z,4.32
2022-12-03T06:45:20.073Z,4.22
2022-12-03T06:47:46.943Z,4.60
2022-12-03T06:50:14.036Z,4.10
2022-12-03T06:52:40.999Z,3.72
2022-12-03T06:55:08.546Z,4.57
2022-12-03T06:57:35.461Z,3.92
2022-12-03T07:00:03.513Z,3.80
2022-12-03T07:02:30.519Z,3.85
2022-12-03T07:04:57.945Z,3.60
2022-12-03T07:07:25.235Z,3.78
2022-12-03T07:09:52.177Z,3.80
2022-12-03T07:12:19.065Z,3.92
2022-12-03T07:14:46.035Z,3.88
2022-12-03T07:17:12.874Z,3.85
2022-12-03T07:19:39.940Z,3.72
2022-12-03T07:22:06.994Z,4.13
2022-12-03T07:27:01.075Z,3.50
2022-12-03T07:29:28.003Z,4.00
2022-12-03T07:31:54.898Z,3.53
2022-12-03T07:36:49.064Z,3.70
2022-12-03T07:39:16.014Z,3.47
2022-12-03T07:41:42.887Z,3.95
2022-12-03T07:44:14.282Z,6.40
2022-12-03T07:46:41.813Z,21.52
2022-12-03T07:49:08.843Z,26.13
2022-12-03T07:51:35.704Z,22.83
2022-12-03T07:54:02.530Z,21.38
2022-12-03T07:56:29.399Z,18.08
2022-12-03T07:58:56.304Z,18.45
2022-12-03T08:01:23.303Z,16.00
2022-12-03T08:03:50.177Z,25.08
2022-12-03T08:06:17.118Z,32.25
2022-12-03T08:08:44.008Z,29.67
2022-12-03T08:11:16.762Z,28.77
2022-12-03T08:13:43.869Z,26.33
2022-12-03T08:16:19.648Z,25.25
2022-12-03T08:18:47.415Z,21.83
2022-12-03T08:21:16.194Z,20.35
2022-12-03T08:23:43.263Z,28.67
2022-12-03T08:26:24.731Z,31.75
2022-12-03T08:28:52.922Z,29.63
2022-12-03T08:31:32.449Z,27.02
2022-12-03T08:34:12.521Z,26.25
2022-12-03T08:36:39.438Z,22.95
2022-12-03T08:39:30.374Z,21.90
2022-12-03T08:42:39.176Z,20.35
2022-12-03T08:45:28.136Z,19.37
2022-12-03T08:47:58.944Z,17.90
2022-12-03T08:50:46.333Z,17.17
2022-12-03T08:53:29.889Z,16.75
2022-12-03T08:56:02.488Z,19.77
2022-12-03T08:58:39.037Z,34.10
2022-12-03T09:01:09.004Z,29.50
2022-12-03T09:03:36.019Z,28.38
2022-12-03T09:06:02.912Z,26.08
2022-12-03T09:08:29.808Z,24.75
2022-12-03T09:10:56.850Z,22.50
2022-12-03T09:13:23.734Z,20.80
2022-12-03T09:15:50.594Z,20.88
2022-12-03T09:18:17.463Z,20.08
2022-12-03T09:20:44.572Z,19.35
2022-12-03T09:23:11.474Z,17.88
2022-12-03T09:25:38.365Z,17.05
2022-12-03T09:28:05.316Z,21.80
2022-12-03T09:33:00.202Z,38.58
2022-12-03T09:35:27.784Z,35.03
2022-12-03T09:37:55.393Z,33.00
2022-12-03T09:40:22.915Z,30.38
2022-12-03T09:42:50.900Z,29.20
2022-12-03T09:45:18.146Z,27.30
2022-12-03T09:47:48.144Z,25.52
2022-12-03T09:50:20.636Z,24.17
2022-12-03T09:52:49.760Z,22.77
2022-12-03T09:55:21.682Z,22.40
2022-12-03T09:57:48.812Z,21.67
2022-12-03T10:00:21.821Z,20.15
2022-12-03T10:02:50.041Z,19.10
2022-12-03T10:05:19.739Z,17.55
2022-12-03T10:10:19.425Z,16.38
2022-12-03T10:12:46.848Z,21.83
2022-12-03T10:15:16.013Z,24.40
2022-12-03T10:17:43.004Z,24.42
2022-12-03T10:20:13.737Z,24.25
2022-12-03T10:22:40.717Z,22.25
2022-12-03T10:25:13.118Z,20.90
2022-12-03T10:27:40.763Z,19.35
2022-12-03T10:30:23.437Z,18.70
2022-12-03T10:32:51.490Z,17.17
2022-12-03T10:35:24.309Z,16.80
2022-12-03T10:38:08.529Z,16.20
2022-12-03T10:40:37.688Z,15.90
2022-12-03T10:43:19.913Z,15.35
2022-12-03T10:46:07.790Z,14.43
2022-12-03T10:48:34.695Z,14.20
2022-12-03T10:51:13.629Z,16.70
2022-12-03T10:53:40.963Z,21.33
2022-12-03T10:56:10.674Z,22.88
2022-12-03T11:01:25.468Z,20.30
2022-12-03T11:03:53.245Z,18.60
2022-12-03T11:06:22.192Z,17.38
2022-12-03T11:08:57.633Z,15.68
2022-12-03T11:11:28.270Z,15.48
2022-12-03T11:14:03.031Z,16.07
2022-12-03T11:16:42.353Z,14.93
2022-12-03T11:19:17.549Z,14.68
2022-12-03T11:22:06.268Z,13.88
2022-12-03T11:24:35.063Z,13.70
2022-12-03T11:27:01.906Z,13.10
2022-12-03T11:29:54.684Z,12.57
2022-12-03T11:32:40.483Z,12.25
2022-12-03T11:35:25.429Z,12.98
2022-12-03T11:37:52.782Z,11.30
2022-12-03T11:40:19.697Z,11.38
2022-12-03T11:42:48.166Z,12.30
2022-12-03T11:45:34.012Z,10.77
2022-12-03T11:48:16.652Z,10.52
2022-12-03T11:50:50.171Z,10.68
2022-12-03T11:53:23.828Z,11.00
2022-12-03T11:56:06.559Z,10.73
2022-12-03T11:58:38.411Z,10.90
2022-12-03T12:01:06.951Z,10.45
2022-12-03T12:03:36.359Z,10.00
2022-12-03T12:06:11.589Z,10.32
2022-12-03T12:08:40.802Z,10.30
2022-12-03T12:11:17.855Z,10.35
2022-12-03T12:13:44.707Z,8.93
2022-12-03T12:16:11.947Z,9.25
2022-12-03T12:18:45.789Z,9.93
2022-12-03T12:21:44.679Z,9.50
2022-12-03T12:24:33.731Z,9.27
2022-12-03T12:27:06.059Z,9.30
2022-12-03T12:29:33.585Z,8.80
2022-12-03T12:32:09.385Z,8.98
2022-12-03T12:34:50.492Z,9.52
2022-12-03T12:37:22.683Z,10.27
2022-12-03T12:39:53.491Z,8.50
2022-12-03T12:42:37.945Z,9.10
2022-12-03T12:45:07.818Z,8.63
2022-12-03T12:47:37.845Z,8.43
2022-12-03T12:50:11.799Z,8.70
2022-12-03T12:53:09.127Z,13.15
2022-12-03T12:55:36.035Z,26.17
2022-12-03T12:58:08.629Z,42.95
2022-12-03T13:00:35.583Z,56.03
2022-12-03T13:03:04.528Z,68.85
2022-12-03T13:05:51.164Z,82.88
2022-12-03T13:08:32.260Z,83.18
2022-12-03T13:11:00.330Z,94.18
2022-12-03T13:13:31.568Z,95.20
2022-12-03T13:16:08.242Z,95.47
2022-12-03T13:18:40.259Z,100.32
2022-12-03T13:23:49.718Z,101.90
2022-12-03T13:26:34.675Z,98.05
2022-12-03T13:29:16.517Z,102.30
2022-12-03T13:31:58.221Z,96.80
2022-12-03T13:34:32.739Z,95.70
2022-12-03T13:37:01.399Z,89.03
2022-12-03T13:39:35.071Z,85.20
2022-12-03T13:42:39.099Z,85.85
2022-12-03T13:45:15.369Z,78.25
2022-12-03T13:47:42.239Z,79.00
2022-12-03T13:50:24.549Z,77.10
2022-12-03T13:52:52.992Z,74.93
2022-12-03T13:55:31.290Z,71.80
2022-12-03T13:57:58.755Z,74.90
2022-12-03T14:00:25.647Z,78.45
2022-12-03T14:02:52.619Z,75.25
2022-12-03T14:05:19.657Z,71.63
2022-12-03T14:07:46.573Z,70.63
2022-12-03T14:10:13.602Z,64.55
2022-12-03T14:12:40.643Z,61.67
2022-12-03T14:15:09.137Z,61.60
2022-12-03T14:17:36.022Z,59.50
2022-12-03T14:20:03.874Z,59.97
2022-12-03T14:22:30.947Z,55.22
2022-12-03T14:24:58.334Z,63.55
2022-12-03T14:27:25.497Z,70.28
2022-12-03T14:29:53.056Z,68.30
2022-12-03T14:32:20.146Z,68.90
2022-12-03T14:34:47.013Z,56.67
2022-12-03T14:37:13.948Z,60.38
2022-12-03T14:39:40.933Z,55.55
2022-12-03T14:42:13.775Z,55.47
2022-12-03T14:44:41.487Z,52.25
2022-12-03T14:47:08.603Z,52.50
2022-12-03T14:49:35.676Z,48.75
2022-12-03T14:54:30.168Z,49.13
2022-12-03T14:56:57.139Z,45.15
2022-12-03T14:59:27.637Z,46.63
2022-12-03T15:01:55.383Z,43.33
2022-12-03T15:04:22.548Z,42.88
2022-12-03T15:06:49.593Z,39.03
2022-12-03T15:09:16.527Z,39.38
2022-12-03T15:11:46.364Z,39.90
2022-12-03T15:14:13.858Z,35.20
2022-12-03T15:16:40.786Z,37.92
2022-12-03T15:19:07.700Z,38.05
2022-12-03T15:21:35.142Z,37.33
2022-12-03T15:24:02.797Z,36.10
2022-12-03T15:26:30.098Z,32.58
2022-12-03T15:28:56.967Z,33.72
2022-12-03T15:31:23.930Z,34.90
2022-12-03T15:33:50.841Z,31.40
2022-12-03T15:36:17.814Z,31.75
2022-12-03T15:38:44.656Z,29.90
2022-12-03T15:41:21.467Z,31.35
2022-12-03T15:43:49.087Z,28.60
2022-12-03T15:46:16.466Z,32.22
2022-12-03T15:48:43.405Z,26.48
2022-12-03T15:51:10.379Z,28.45
2022-12-03T15:53:37.298Z,27.13
2022-12-03T15:56:04.416Z,25.25
2022-12-03T15:58:31.284Z,29.42
2022-12-03T16:00:58.267Z,27.33
2022-12-03T16:03:25.226Z,25.30
2022-12-03T16:05:52.186Z,24.98
2022-12-03T16:08:19.189Z,26.45
2022-12-03T16:10:46.136Z,26.45
2022-12-03T16:13:13.124Z,24.75
2022-12-03T16:18:07.180Z,23.20
2022-12-03T16:20:34.188Z,22.63
2022-12-03T16:23:01.049Z,21.30
2022-12-03T16:25:27.902Z,22.52
2022-12-03T16:27:54.804Z,22.52
2022-12-03T16:30:21.829Z,22.17
2022-12-03T16:32:48.861Z,21.45
2022-12-03T16:35:15.777Z,21.27
2022-12-03T16:37:42.739Z,20.73
2022-12-03T16:40:10.011Z,21.80
2022-12-03T16:42:37.389Z,20.55
2022-12-03T16:45:04.635Z,21.35
2022-12-03T16:47:34.311Z,18.83
2022-12-03T16:50:09.877Z,20.85
2022-12-03T16:52:54.850Z,18.98
2022-12-03T16:55:21.746Z,20.92
2022-12-03T16:57:48.658Z,20.88
2022-12-03T17:00:16.334Z,20.70
2022-12-03T17:02:43.311Z,20.17
2022-12-03T17:05:10.241Z,20.15
2022-12-03T17:07:37.243Z,19.35
2022-12-03T17:10:05.036Z,18.92
2022-12-03T17:12:54.108Z,19.38
2022-12-03T17:15:18.732Z,17.85
2022-12-03T17:17:45.609Z,19.25
2022-12-03T17:20:14.637Z,17.95
2022-12-03T17:22:41.944Z,17.33
2022-12-03T17:25:09.596Z,17.05
2022-12-03T17:27:40.825Z,17.50
2022-12-03T17:30:12.064Z,17.10
2022-12-03T17:32:38.922Z,16.38
2022-12-03T17:35:06.230Z,16.15
2022-12-03T17:37:33.131Z,16.85
2022-12-03T17:40:00.090Z,15.98
2022-12-03T17:42:27.125Z,16.60
2022-12-03T17:44:54.006Z,15.75
2022-12-03T17:47:20.898Z,15.63
2022-12-03T17:49:47.818Z,23.23
2022-12-03T17:52:14.706Z,19.27
2022-12-03T17:55:02.346Z,21.55
2022-12-03T17:57:28.558Z,23.48
2022-12-03T17:59:55.846Z,26.92
2022-12-03T18:02:22.945Z,30.70
2022-12-03T18:04:49.856Z,33.03
2022-12-03T18:07:16.714Z,32.92
2022-12-03T18:09:43.676Z,36.08
2022-12-03T18:12:10.632Z,38.15
2022-12-03T18:14:37.485Z,37.67
2022-12-03T18:17:04.450Z,39.72
2022-12-03T18:19:31.331Z,38.80
2022-12-03T18:21:58.318Z,38.20
2022-12-03T18:24:25.573Z,37.58
2022-12-03T18:26:52.457Z,37.08
2022-12-03T18:29:19.323Z,36.60
2022-12-03T18:31:46.325Z,36.05
2022-12-03T18:34:13.240Z,36.45
2022-12-03T18:36:40.188Z,35.25
2022-12-03T18:39:09.349Z,33.03
2022-12-03T18:41:36.842Z,33.63
2022-12-03T18:44:06.839Z,29.92
2022-12-03T18:46:53.048Z,35.03
2022-12-03T18:49:20.637Z,39.28
2022-12-03T18:51:48.430Z,35.60
2022-12-03T18:54:15.793Z,37.85
2022-12-03T18:56:42.777Z,34.97
2022-12-03T18:59:09.827Z,30.98
2022-12-03T19:01:36.758Z,28.38
2022-12-03T19:04:03.818Z,32.03
2022-12-03T19:06:30.777Z,28.77
2022-12-03T19:08:57.982Z,29.70
2022-12-03T19:11:24.963Z,26.17
2022-12-03T19:13:52.146Z,26.63
2022-12-03T19:16:19.396Z,25.38
2022-12-03T19:18:46.303Z,26.38
2022-12-03T19:21:15.563Z,25.77
2022-12-03T19:24:04.254Z,27.88
2022-12-03T19:26:29.845Z,34.45
2022-12-03T19:28:56.738Z,35.00
2022-12-03T19:31:23.642Z,36.08
2022-12-03T19:33:51.814Z,33.10
2022-12-03T19:36:24.589Z,33.22
2022-12-03T19:38:56.948Z,31.52
2022-12-03T19:41:26.809Z,26.80
2022-12-03T19:43:55.050Z,27.13
2022-12-03T19:46:23.527Z,28.20
2022-12-03T19:48:50.577Z,25.58
2022-12-03T19:51:33.439Z,23.40
2022-12-03T19:54:01.585Z,23.35
2022-12-03T19:56:30.522Z,22.17
2022-12-03T19:58:57.779Z,20.80
2022-12-03T20:01:32.197Z,23.02
2022-12-03T20:04:00.281Z,22.10
2022-12-03T20:06:29.671Z,20.95
2022-12-03T20:09:05.595Z,20.02
2022-12-03T20:11:34.017Z,20.08
2022-12-03T20:14:03.323Z,34.28
2022-12-03T20:16:30.428Z,34.83
2022-12-03T20:18:59.623Z,34.35
2022-12-03T20:21:27.112Z,33.30
2022-12-03T20:23:53.993Z,32.65
2022-12-03T20:26:21.816Z,30.08
2022-12-03T20:28:49.028Z,27.90
2022-12-03T20:31:18.062Z,28.20
2022-12-03T20:33:47.041Z,26.65
2022-12-03T20:36:16.270Z,24.50
2022-12-03T20:38:43.707Z,25.00
2022-12-03T20:41:12.910Z,22.70
2022-12-03T20:43:39.775Z,22.20
2022-12-03T20:46:15.276Z,21.13
2022-12-03T20:48:43.450Z,20.52
2022-12-03T20:51:12.818Z,20.10
2022-12-03T20:53:39.936Z,20.02
2022-12-03T20:56:07.946Z,20.63
2022-12-03T20:58:35.408Z,20.13
2022-12-03T21:01:16.019Z,19.38
2022-12-03T21:03:43.960Z,20.38
2022-12-03T21:06:11.434Z,19.05
2022-12-03T21:08:42.602Z,18.75
2022-12-03T21:11:18.577Z,25.42
2022-12-03T21:13:46.597Z,35.13
2022-12-03T21:16:16.143Z,37.50
2022-12-03T21:21:11.755Z,34.53
2022-12-03T21:23:38.649Z,32.13
2022-12-03T21:26:16.492Z,30.10
2022-12-03T21:28:45.049Z,28.77
2022-12-03T21:33:43.630Z,26.52
2022-12-03T21:36:11.719Z,24.15
2022-12-03T21:38:38.661Z,24.30
2022-12-03T21:43:34.017Z,23.35
2022-12-03T21:46:05.279Z,23.13
2022-12-03T21:48:52.260Z,21.73
2022-12-03T21:51:19.766Z,20.65
2022-12-03T21:53:47.861Z,20.35
2022-12-03T21:56:19.299Z,20.08
2022-12-03T21:58:46.688Z,20.67
2022-12-03T22:01:31.884Z,23.55
2022-12-03T22:03:58.864Z,33.70
2022-12-03T22:06:25.748Z,39.35
2022-12-03T22:08:52.592Z,35.38
2022-12-03T22:11:22.767Z,33.83
2022-12-03T22:13:49.934Z,31.30
2022-12-03T22:16:20.084Z,29.42
2022-12-03T22:18:47.500Z,28.13
2022-12-03T22:21:19.826Z,26.73
2022-12-03T22:23:46.739Z,26.15
2022-12-03T22:26:16.050Z,24.33
2022-12-03T22:28:44.446Z,24.10
2022-12-03T22:31:11.923Z,22.33
2022-12-03T22:33:39.288Z,22.15
2022-12-03T22:36:08.398Z,19.85
2022-12-03T22:38:35.776Z,21.73
2022-12-03T22:41:07.455Z,21.25
2022-12-03T22:43:37.140Z,28.95
2022-12-03T22:46:05.045Z,41.80
2022-12-03T22:48:34.932Z,40.92
2022-12-03T22:51:02.042Z,39.60
2022-12-03T22:53:28.954Z,39.10
2022-12-03T22:55:57.530Z,37.25
2022-12-03T22:58:25.323Z,34.15
2022-12-03T23:00:52.630Z,34.00
2022-12-03T23:03:19.841Z,32.60
2022-12-03T23:05:46.847Z,30.80
2022-12-03T23:08:21.616Z,28.17
2022-12-03T23:10:50.820Z,27.25
2022-12-03T23:15:48.231Z,26.35
2022-12-03T23:18:15.187Z,26.85
2022-12-03T23:20:44.429Z,26.60
2022-12-03T23:23:11.456Z,24.15
2022-12-03T23:25:38.476Z,26.02
2022-12-03T23:28:05.793Z,23.77
2022-12-03T23:30:36.397Z,23.00
2022-12-03T23:33:04.451Z,22.98
2022-12-03T23:35:31.553Z,23.02
2022-12-03T23:37:58.477Z,22.77
2022-12-03T23:40:25.403Z,21.30
2022-12-03T23:42:52.284Z,22.35
2022-12-03T23:45:19.140Z,21.60
2022-12-03T23:47:46.039Z,20.50
2022-12-03T23:50:12.975Z,20.67
2022-12-03T23:52:39.915Z,20.17
2022-12-03T23:55:10.613Z,20.52
2022-12-03T23:57:37.802Z,19.27
